Time;durP1;ratioP1;P1;durP2;ratioP2;P2;SDS_P1;SDS_P2;PMS_P1;PMS_P2;Temp;Humidity;BMP_temperature;BMP_pressure;BME280_temperature;BME280_humidity;BME280_pressure;Samples;Min_cycle;Max_cycle;Signal;HPM_P1;HPM_P2
2023/10/18 00:00:28;;;;;;;8.63;4.68;;;;;;;;;;6193997;23;20055;-84
2023/10/18 00:02:55;;;;;;;9.25;5.00;;;;;;;;;;6219231;23;20008;-84
2023/10/18 00:05:21;;;;;;;7.90;4.70;;;;;;;;;;6193933;23;20020;-84
2023/10/18 00:07:56;;;;;;;5.97;4.65;;;;;;;;;;6219542;23;20123;-84
2023/10/18 00:10:22;;;;;;;10.02;4.88;;;;;;;;;;6218742;23;20012;-84
2023/10/18 00:12:48;;;;;;;9.45;5.30;;;;;;;;;;6246493;23;20344;-83
2023/10/18 00:15:15;;;;;;;8.25;5.05;;;;;;;;;;6219235;23;20038;-84
2023/10/18 00:17:41;;;;;;;7.97;5.20;;;;;;;;;;6219259;23;20012;-84
2023/10/18 00:20:13;;;;;;;9.23;4.80;;;;;;;;;;6192786;23;20055;-84
2023/10/18 00:22:46;;;;;;;8.05;4.80;;;;;;;;;;6219757;23;20456;-84
2023/10/18 00:25:12;;;;;;;7.88;5.05;;;;;;;;;;6193452;23;20024;-84
2023/10/18 00:27:41;;;;;;;8.55;4.93;;;;;;;;;;6217743;23;20020;-84
2023/10/18 00:30:07;;;;;;;11.82;4.97;;;;;;;;;;6193013;23;20070;-84
2023/10/18 00:32:37;;;;;;;7.20;4.80;;;;;;;;;;6193769;23;20471;-84
2023/10/18 00:35:12;;;;;;;7.25;5.18;;;;;;;;;;6192749;23;20023;-85
2023/10/18 00:37:41;;;;;;;8.68;5.03;;;;;;;;;;6192079;23;20016;-84
2023/10/18 00:40:20;;;;;;;7.25;5.13;;;;;;;;;;6193746;23;20020;-84
2023/10/18 00:42:46;;;;;;;8.43;4.80;;;;;;;;;;6193277;23;20047;-84
2023/10/18 00:45:12;;;;;;;10.20;5.38;;;;;;;;;;6194000;23;20016;-84
2023/10/18 00:47:39;;;;;;;7.15;4.72;;;;;;;;;;6192223;23;20020;-84
2023/10/18 00:50:06;;;;;;;11.95;5.20;;;;;;;;;;6192957;23;20363;-84
2023/10/18 00:52:32;;;;;;;8.18;5.57;;;;;;;;;;6218471;23;20027;-84
2023/10/18 00:54:58;;;;;;;8.43;5.70;;;;;;;;;;6193179;23;20016;-84
2023/10/18 00:57:25;;;;;;;6.07;5.03;;;;;;;;;;6193123;23;20039;-84
2023/10/18 00:59:53;;;;;;;7.55;5.53;;;;;;;;;;6216689;23;20082;-84
2023/10/18 01:02:27;;;;;;;9.82;5.80;;;;;;;;;;6192740;23;20016;-84
2023/10/18 01:04:54;;;;;;;8.20;6.20;;;;;;;;;;6217912;23;20020;-84
2023/10/18 01:07:20;;;;;;;9.63;5.53;;;;;;;;;;6192756;23;20023;-84
2023/10/18 01:09:53;;;;;;;9.43;5.78;;;;;;;;;;6217259;23;20452;-84
2023/10/18 01:12:20;;;;;;;9.30;5.95;;;;;;;;;;6244912;23;20023;-84
2023/10/18 01:14:48;;;;;;;9.57;5.57;;;;;;;;;;6192700;23;20020;-84
2023/10/18 01:17:16;;;;;;;9.25;6.22;;;;;;;;;;6217833;23;20456;-84
2023/10/18 01:19:43;;;;;;;9.95;6.07;;;;;;;;;;6218158;23;20016;-84
2023/10/18 01:22:09;;;;;;;10.38;6.10;;;;;;;;;;6192729;23;20020;-84
2023/10/18 01:24:35;;;;;;;10.50;6.57;;;;;;;;;;6191861;23;20097;-84
2023/10/18 01:27:02;;;;;;;8.98;6.20;;;;;;;;;;6191450;23;20414;-84
2023/10/18 01:29:29;;;;;;;8.98;6.43;;;;;;;;;;6245460;23;20020;-83
2023/10/18 01:31:55;;;;;;;9.48;6.53;;;;;;;;;;6245001;23;20020;-84
2023/10/18 01:34:22;;;;;;;10.90;7.38;;;;;;;;;;6217198;23;20030;-84
2023/10/18 01:36:49;;;;;;;11.88;7.40;;;;;;;;;;6218103;23;20087;-84
2023/10/18 01:39:18;;;;;;;12.02;7.45;;;;;;;;;;6218019;23;20145;-84
2023/10/18 01:41:49;;;;;;;11.90;7.53;;;;;;;;;;6218336;23;20016;-84
2023/10/18 01:44:31;;;;;;;12.52;7.60;;;;;;;;;;6192272;23;20344;-84
2023/10/18 01:47:06;;;;;;;13.30;8.45;;;;;;;;;;6245120;23;20476;-84
2023/10/18 01:49:46;;;;;;;14.45;8.90;;;;;;;;;;6218089;23;20133;-84
2023/10/18 01:52:17;;;;;;;13.27;8.45;;;;;;;;;;6218995;23;20052;-84
2023/10/18 01:54:43;;;;;;;13.95;9.02;;;;;;;;;;6192337;23;20027;-84
2023/10/18 01:57:11;;;;;;;13.73;9.20;;;;;;;;;;6192954;23;20012;-84
2023/10/18 01:59:39;;;;;;;16.42;9.68;;;;;;;;;;6218327;23;20012;-84
2023/10/18 02:02:12;;;;;;;15.13;9.32;;;;;;;;;;6217713;23;20024;-84
2023/10/18 02:04:42;;;;;;;15.75;9.52;;;;;;;;;;6218282;23;20027;-84
2023/10/18 02:07:08;;;;;;;14.60;9.95;;;;;;;;;;6219007;23;20027;-84
2023/10/18 02:09:47;;;;;;;14.85;9.77;;;;;;;;;;6218091;23;20016;-84
2023/10/18 02:12:18;;;;;;;17.90;10.20;;;;;;;;;;6192523;23;20047;-83
2023/10/18 02:14:45;;;;;;;16.80;10.00;;;;;;;;;;6218175;23;20401;-83
2023/10/18 02:17:11;;;;;;;17.58;10.43;;;;;;;;;;6192540;23;20016;-83
2023/10/18 02:19:37;;;;;;;16.80;10.20;;;;;;;;;;6193248;23;20008;-83
2023/10/18 02:22:07;;;;;;;14.95;10.10;;;;;;;;;;6217223;23;20031;-84
2023/10/18 02:24:38;;;;;;;17.55;11.18;;;;;;;;;;6192655;23;20027;-84
2023/10/18 02:27:08;;;;;;;17.45;10.00;;;;;;;;;;6192735;23;20032;-84
2023/10/18 02:29:35;;;;;;;17.33;10.88;;;;;;;;;;6192707;23;20460;-84
2023/10/18 02:32:21;;;;;;;15.38;10.60;;;;;;;;;;6191893;23;20066;-84
2023/10/18 02:34:47;;;;;;;19.77;11.20;;;;;;;;;;6194977;23;20020;-84
2023/10/18 02:37:15;;;;;;;17.23;10.10;;;;;;;;;;6192681;23;20024;-84
2023/10/18 02:39:42;;;;;;;18.83;10.95;;;;;;;;;;6193036;23;20039;-84
2023/10/18 02:42:08;;;;;;;17.65;11.02;;;;;;;;;;6194388;23;20028;-84
2023/10/18 02:44:35;;;;;;;16.52;11.57;;;;;;;;;;6192943;23;20016;-83
2023/10/18 02:47:10;;;;;;;19.73;11.75;;;;;;;;;;6218210;23;20028;-84
2023/10/18 02:49:36;;;;;;;17.30;11.50;;;;;;;;;;6194151;23;20455;-83
2023/10/18 02:52:03;;;;;;;19.67;11.90;;;;;;;;;;6193571;23;20074;-84
2023/10/18 02:54:32;;;;;;;20.60;11.60;;;;;;;;;;6193787;23;20020;-84
2023/10/18 02:56:59;;;;;;;18.25;12.73;;;;;;;;;;6219664;23;20024;-84
2023/10/18 02:59:27;;;;;;;20.17;13.23;;;;;;;;;;6194789;23;20056;-84
2023/10/18 03:01:57;;;;;;;21.77;12.88;;;;;;;;;;6218847;23;20016;-84
2023/10/18 03:04:29;;;;;;;24.60;13.43;;;;;;;;;;6218965;23;20084;-84
2023/10/18 03:06:58;;;;;;;17.92;12.60;;;;;;;;;;6246306;23;20035;-84
2023/10/18 03:09:27;;;;;;;22.30;14.30;;;;;;;;;;6219633;23;20102;-84
2023/10/18 03:11:57;;;;;;;20.98;12.65;;;;;;;;;;6194076;23;20046;-83
2023/10/18 03:14:36;;;;;;;24.45;13.52;;;;;;;;;;6218504;23;20357;-84
2023/10/18 03:17:13;;;;;;;21.83;12.93;;;;;;;;;;6245920;23;20016;-84
2023/10/18 03:19:40;;;;;;;22.23;12.25;;;;;;;;;;6194518;23;20357;-84
2023/10/18 03:22:06;;;;;;;18.67;12.43;;;;;;;;;;6243691;23;20016;-84
2023/10/18 03:24:32;;;;;;;18.63;12.98;;;;;;;;;;6217253;23;20095;-84
2023/10/18 03:27:07;;;;;;;21.20;12.57;;;;;;;;;;6245859;23;20095;-84
2023/10/18 03:29:33;;;;;;;20.40;11.77;;;;;;;;;;6194404;23;20033;-83
2023/10/18 03:32:00;;;;;;;22.05;13.18;;;;;;;;;;6219086;23;20035;-84
2023/10/18 03:34:29;;;;;;;19.83;11.55;;;;;;;;;;6193029;23;20019;-84
2023/10/18 03:36:55;;;;;;;19.40;11.35;;;;;;;;;;6219268;23;20079;-84
2023/10/18 03:39:24;;;;;;;18.77;12.00;;;;;;;;;;6193659;23;20020;-84
2023/10/18 03:41:50;;;;;;;17.35;12.05;;;;;;;;;;6194450;23;20031;-84
2023/10/18 03:44:32;;;;;;;17.30;11.90;;;;;;;;;;6217895;23;20020;-84
2023/10/18 03:47:04;;;;;;;19.83;11.90;;;;;;;;;;6246523;23;20016;-84
2023/10/18 03:52:01;;;;;;;19.75;12.80;;;;;;;;;;6219485;23;20020;-84
2023/10/18 03:54:37;;;;;;;18.25;11.63;;;;;;;;;;6218276;23;20031;-84
2023/10/18 03:57:11;;;;;;;18.27;11.55;;;;;;;;;;6218772;23;20034;-84
2023/10/18 03:59:40;;;;;;;18.50;11.35;;;;;;;;;;6219509;23;20028;-83
2023/10/18 04:04:57;;;;;;;18.73;11.82;;;;;;;;;;6218753;23;20035;-83
2023/10/18 04:07:24;;;;;;;19.73;11.57;;;;;;;;;;6219740;23;20318;-83
2023/10/18 04:09:53;;;;;;;18.15;11.63;;;;;;;;;;6220459;23;20016;-83
2023/10/18 04:12:21;;;;;;;17.73;11.60;;;;;;;;;;6219713;23;20020;-84
2023/10/18 04:14:53;;;;;;;19.45;11.68;;;;;;;;;;6193970;23;20020;-84
2023/10/18 04:20:07;;;;;;;17.75;11.30;;;;;;;;;;6219374;23;20027;-84
2023/10/18 04:22:33;;;;;;;17.90;11.65;;;;;;;;;;6246775;23;20090;-84
2023/10/18 04:25:01;;;;;;;17.17;11.27;;;;;;;;;;6193666;23;20020;-84
2023/10/18 04:27:27;;;;;;;16.83;11.27;;;;;;;;;;6218818;23;20055;-83
2023/10/18 04:29:56;;;;;;;19.42;11.60;;;;;;;;;;6219130;23;20016;-83
2023/10/18 04:32:23;;;;;;;17.05;10.73;;;;;;;;;;6218842;23;20491;-84
2023/10/18 04:34:49;;;;;;;18.02;11.43;;;;;;;;;;6192934;23;20048;-84
2023/10/18 04:37:16;;;;;;;17.75;11.48;;;;;;;;;;6219118;23;20102;-84
2023/10/18 04:39:43;;;;;;;16.30;11.00;;;;;;;;;;6218023;23;20356;-84
2023/10/18 04:42:17;;;;;;;19.77;11.63;;;;;;;;;;6192811;23;20016;-84
2023/10/18 04:44:49;;;;;;;17.50;11.48;;;;;;;;;;6244623;23;20017;-84
2023/10/18 04:47:15;;;;;;;16.10;10.95;;;;;;;;;;6193915;23;20020;-84
2023/10/18 04:49:50;;;;;;;18.70;11.80;;;;;;;;;;6218896;23;20023;-84
2023/10/18 04:52:40;;;;;;;18.73;12.05;;;;;;;;;;6219018;23;20154;-84
2023/10/18 04:55:15;;;;;;;19.08;11.45;;;;;;;;;;6192380;23;20024;-84
2023/10/18 04:57:42;;;;;;;21.55;12.05;;;;;;;;;;6218870;23;20015;-84
2023/10/18 05:00:25;;;;;;;18.65;12.05;;;;;;;;;;6244587;23;20514;-84
2023/10/18 05:02:58;;;;;;;19.35;12.93;;;;;;;;;;6217867;23;20448;-84
2023/10/18 05:05:26;;;;;;;22.58;12.98;;;;;;;;;;6245160;23;20484;-84
2023/10/18 05:07:53;;;;;;;20.73;12.52;;;;;;;;;;6244874;23;20345;-84
2023/10/18 05:10:21;;;;;;;21.10;11.85;;;;;;;;;;6245171;23;20016;-84
2023/10/18 05:12:53;;;;;;;18.38;12.45;;;;;;;;;;6192012;23;20142;-84
2023/10/18 05:15:29;;;;;;;22.90;13.90;;;;;;;;;;6192902;23;20463;-84
2023/10/18 05:18:37;;;;;;;21.63;12.85;;;;;;;;;;6193611;23;20027;-84
2023/10/18 05:20:56;;;;;;;25.05;14.23;;;;;;;;;;6201934;23;20078;-84
2023/10/18 05:23:23;;;;;;;23.80;14.18;;;;;;;;;;6192359;23;20385;-84
2023/10/18 05:25:56;;;;;;;21.63;15.07;;;;;;;;;;6193010;23;20024;-84
2023/10/18 05:28:25;;;;;;;23.05;14.90;;;;;;;;;;6193195;23;20020;-84
2023/10/18 05:31:43;;;;;;;22.83;14.65;;;;;;;;;;6245439;23;20054;-84
2023/10/18 05:33:54;;;;;;;22.95;14.98;;;;;;;;;;6244028;23;20114;-84
2023/10/18 05:43:47;;;;;;;25.23;15.20;;;;;;;;;;6217996;23;20020;-84
2023/10/18 05:46:13;;;;;;;26.05;16.08;;;;;;;;;;6194281;23;20020;-84
2023/10/18 05:48:42;;;;;;;24.17;14.65;;;;;;;;;;6197000;23;20067;-83
2023/10/18 05:53:50;;;;;;;23.92;14.50;;;;;;;;;;6219647;23;20184;-84
2023/10/18 05:56:21;;;;;;;24.48;16.23;;;;;;;;;;6193801;23;20020;-84
2023/10/18 05:59:01;;;;;;;25.65;16.65;;;;;;;;;;6220709;23;20109;-84
2023/10/18 06:01:27;;;;;;;24.70;16.60;;;;;;;;;;6219720;23;20023;-84
2023/10/18 06:03:57;;;;;;;26.85;16.20;;;;;;;;;;6195570;23;20018;-84
2023/10/18 06:06:23;;;;;;;27.15;16.80;;;;;;;;;;6221274;23;20336;-84
2023/10/18 06:08:49;;;;;;;26.98;16.58;;;;;;;;;;6197393;23;20055;-84
2023/10/18 06:11:19;;;;;;;23.65;16.05;;;;;;;;;;6197261;23;20047;-83
2023/10/18 06:13:45;;;;;;;27.17;17.55;;;;;;;;;;6197203;23;20023;-83
2023/10/18 06:16:21;;;;;;;25.00;16.70;;;;;;;;;;6197152;23;20150;-83
2023/10/18 06:18:48;;;;;;;29.42;17.42;;;;;;;;;;6195378;23;20059;-84
2023/10/18 06:21:18;;;;;;;28.63;16.75;;;;;;;;;;6221246;23;20023;-84
2023/10/18 06:23:57;;;;;;;26.60;16.95;;;;;;;;;;6197181;23;20082;-84
2023/10/18 06:26:33;;;;;;;26.92;17.25;;;;;;;;;;6194349;23;20051;-85
2023/10/18 06:29:02;;;;;;;27.20;16.77;;;;;;;;;;6219136;23;20103;-85
2023/10/18 06:31:39;;;;;;;28.70;15.95;;;;;;;;;;6193852;23;20016;-84
2023/10/18 06:34:10;;;;;;;26.55;16.73;;;;;;;;;;6195048;23;20464;-85
2023/10/18 06:36:39;;;;;;;25.48;17.05;;;;;;;;;;6191676;23;20020;-85
2023/10/18 06:39:08;;;;;;;27.02;17.05;;;;;;;;;;6218505;23;20012;-85
2023/10/18 06:41:36;;;;;;;30.38;17.73;;;;;;;;;;6194259;23;20028;-84
2023/10/18 06:44:02;;;;;;;23.42;16.17;;;;;;;;;;6195184;23;20348;-85
2023/10/18 06:46:30;;;;;;;25.17;15.50;;;;;;;;;;6195420;23;20107;-85
2023/10/18 06:48:59;;;;;;;28.88;17.58;;;;;;;;;;6195301;23;20016;-85
2023/10/18 06:51:33;;;;;;;24.55;15.98;;;;;;;;;;6193548;23;20074;-85
2023/10/18 06:53:59;;;;;;;27.17;15.85;;;;;;;;;;6194516;23;20425;-85
2023/10/18 06:56:26;;;;;;;24.08;16.25;;;;;;;;;;6195034;23;20502;-84
2023/10/18 06:58:53;;;;;;;23.58;15.73;;;;;;;;;;6194840;23;20019;-84
2023/10/18 07:01:30;;;;;;;25.60;16.40;;;;;;;;;;6195557;23;20024;-84
2023/10/18 07:03:56;;;;;;;24.27;16.50;;;;;;;;;;6194357;23;20125;-85
2023/10/18 07:06:29;;;;;;;25.73;16.52;;;;;;;;;;6193879;23;20016;-85
2023/10/18 07:09:08;;;;;;;25.42;16.38;;;;;;;;;;6195513;23;20058;-86
2023/10/18 07:11:37;;;;;;;24.85;15.20;;;;;;;;;;6194397;23;20103;-86
2023/10/18 07:14:04;;;;;;;24.42;15.43;;;;;;;;;;6194774;23;20417;-87
2023/10/18 07:21:32;;;;;;;21.08;14.30;;;;;;;;;;6220016;23;20028;-85
2023/10/18 07:24:02;;;;;;;22.00;14.80;;;;;;;;;;6195073;23;20012;-85
2023/10/18 07:26:29;;;;;;;26.88;16.17;;;;;;;;;;6193969;23;20013;-86
2023/10/18 07:28:55;;;;;;;24.58;15.13;;;;;;;;;;6219833;23;20024;-85
2023/10/18 07:31:27;;;;;;;23.27;15.10;;;;;;;;;;6194900;23;20016;-86
2023/10/18 07:33:54;;;;;;;23.05;15.18;;;;;;;;;;6195415;23;20461;-87
2023/10/18 07:36:22;;;;;;;23.95;15.13;;;;;;;;;;6195193;23;20016;-87
2023/10/18 07:38:50;;;;;;;22.17;14.45;;;;;;;;;;6195380;23;20309;-86
2023/10/18 07:41:18;;;;;;;24.17;15.57;;;;;;;;;;6194712;23;20020;-86
2023/10/18 07:43:44;;;;;;;23.38;15.23;;;;;;;;;;6195071;23;20048;-87
2023/10/18 07:46:18;;;;;;;23.63;15.25;;;;;;;;;;6195033;23;20018;-87
2023/10/18 07:48:47;;;;;;;22.88;15.05;;;;;;;;;;6219605;23;20099;-86
2023/10/18 07:51:23;;;;;;;21.92;15.63;;;;;;;;;;6194410;23;20020;-86
2023/10/18 07:53:50;;;;;;;24.08;14.73;;;;;;;;;;6194474;23;20078;-86
2023/10/18 07:56:29;;;;;;;21.67;14.68;;;;;;;;;;6194245;23;20020;-86
2023/10/18 07:59:27;;;;;;;26.23;15.75;;;;;;;;;;6193891;23;20020;-87
2023/10/18 08:01:52;;;;;;;25.55;14.73;;;;;;;;;;6219078;23;20016;-87
2023/10/18 08:04:22;;;;;;;22.75;13.80;;;;;;;;;;6194391;23;20455;-87
2023/10/18 08:06:49;;;;;;;23.02;14.13;;;;;;;;;;6191449;23;20325;-86
2023/10/18 08:09:20;;;;;;;23.92;14.30;;;;;;;;;;6191087;23;20012;-86
2023/10/18 08:11:50;;;;;;;22.30;15.13;;;;;;;;;;6191984;23;20047;-86
2023/10/18 08:14:24;;;;;;;22.20;14.52;;;;;;;;;;6191717;23;20345;-86
2023/10/18 08:16:57;;;;;;;24.38;14.35;;;;;;;;;;6190504;23;20027;-86
2023/10/18 08:19:24;;;;;;;22.10;14.43;;;;;;;;;;6191443;23;20028;-85
2023/10/18 08:24:41;;;;;;;26.05;14.38;;;;;;;;;;6219450;23;20020;-86
2023/10/18 08:27:10;;;;;;;21.88;12.80;;;;;;;;;;6194130;23;20019;-85
2023/10/18 08:29:39;;;;;;;22.50;14.05;;;;;;;;;;6194136;23;20424;-86
2023/10/18 08:32:18;;;;;;;22.45;14.07;;;;;;;;;;6193818;23;20023;-85
2023/10/18 08:34:45;;;;;;;21.30;14.20;;;;;;;;;;6193670;23;20095;-86
2023/10/18 08:37:13;;;;;;;23.42;13.65;;;;;;;;;;6194552;23;20016;-86
2023/10/18 08:39:40;;;;;;;21.00;13.23;;;;;;;;;;6194031;23;20020;-86
2023/10/18 08:42:13;;;;;;;20.50;13.18;;;;;;;;;;6193800;23;20012;-86
2023/10/18 08:44:40;;;;;;;19.50;13.23;;;;;;;;;;6193809;23;20020;-86
2023/10/18 08:49:44;;;;;;;21.35;13.27;;;;;;;;;;6218218;23;20344;-86
2023/10/18 08:52:10;;;;;;;20.27;13.50;;;;;;;;;;6193385;23;20070;-86
2023/10/18 08:54:42;;;;;;;20.05;13.88;;;;;;;;;;6193391;23;20066;-86
2023/10/18 08:57:09;;;;;;;19.38;12.65;;;;;;;;;;6193247;23;20463;-86
2023/10/18 08:59:50;;;;;;;20.85;13.20;;;;;;;;;;6193251;23;20016;-86
2023/10/18 09:02:23;;;;;;;19.33;13.20;;;;;;;;;;6193210;23;20016;-87
2023/10/18 09:04:54;;;;;;;19.02;12.77;;;;;;;;;;6192936;23;20020;-86
2023/10/18 09:07:21;;;;;;;19.33;12.88;;;;;;;;;;6193528;23;20050;-86
2023/10/18 09:09:57;;;;;;;18.98;13.48;;;;;;;;;;6218235;23;20016;-85
2023/10/18 09:13:29;;;;;;;21.23;13.23;;;;;;;;;;6194512;23;20318;-87
2023/10/18 09:15:27;;;;;;;21.85;13.43;;;;;;;;;;6212207;23;20016;-86
2023/10/18 09:17:54;;;;;;;21.08;13.15;;;;;;;;;;6218381;23;20023;-85
2023/10/18 09:20:25;;;;;;;22.50;13.27;;;;;;;;;;6193757;23;20024;-86
2023/10/18 09:22:52;;;;;;;20.88;12.90;;;;;;;;;;6194653;23;20157;-85
2023/10/18 09:25:20;;;;;;;20.08;13.45;;;;;;;;;;6215961;23;20016;-85
2023/10/18 09:27:46;;;;;;;18.15;12.77;;;;;;;;;;6191792;23;20475;-85
2023/10/18 09:30:18;;;;;;;19.42;12.95;;;;;;;;;;6193296;23;20016;-85
2023/10/18 09:32:45;;;;;;;16.83;12.00;;;;;;;;;;6192760;23;20047;-85
2023/10/18 09:35:12;;;;;;;19.30;13.18;;;;;;;;;;6193367;23;20012;-85
2023/10/18 09:37:38;;;;;;;20.77;14.27;;;;;;;;;;6192288;23;20016;-85
2023/10/18 09:40:05;;;;;;;17.85;12.60;;;;;;;;;;6192346;23;20454;-85
2023/10/18 09:42:31;;;;;;;18.90;13.57;;;;;;;;;;6192802;23;20326;-85
2023/10/18 09:44:59;;;;;;;15.63;11.65;;;;;;;;;;6193083;23;20020;-85
2023/10/18 09:47:27;;;;;;;17.08;12.13;;;;;;;;;;6192671;23;20099;-86
2023/10/18 09:49:57;;;;;;;17.40;12.52;;;;;;;;;;6191890;23;20467;-85
2023/10/18 09:52:31;;;;;;;17.20;12.10;;;;;;;;;;6194492;23;20379;-85
2023/10/18 09:54:59;;;;;;;15.70;11.20;;;;;;;;;;6193383;23;20028;-85
2023/10/18 09:57:26;;;;;;;16.85;10.85;;;;;;;;;;6218759;23;20079;-85
2023/10/18 09:59:54;;;;;;;17.92;11.68;;;;;;;;;;6193601;23;20027;-85
2023/10/18 10:02:21;;;;;;;16.33;10.63;;;;;;;;;;6193682;23;20020;-85
2023/10/18 10:04:54;;;;;;;15.60;10.13;;;;;;;;;;6193651;23;20016;-85
2023/10/18 10:07:41;;;;;;;13.90;10.05;;;;;;;;;;6193224;23;20016;-85
2023/10/18 10:10:08;;;;;;;15.10;10.43;;;;;;;;;;6193357;23;20024;-85
2023/10/18 10:12:34;;;;;;;14.20;10.05;;;;;;;;;;6193397;23;20020;-85
2023/10/18 10:15:01;;;;;;;16.63;11.48;;;;;;;;;;6193762;23;20019;-85
2023/10/18 10:17:28;;;;;;;15.27;10.85;;;;;;;;;;6193522;23;20012;-85
2023/10/18 10:20:10;;;;;;;15.55;10.93;;;;;;;;;;6193266;23;20016;-85
2023/10/18 10:22:37;;;;;;;14.57;10.48;;;;;;;;;;6194233;23;20012;-85
2023/10/18 10:25:04;;;;;;;14.45;11.20;;;;;;;;;;6193704;23;20072;-85
2023/10/18 10:30:03;;;;;;;16.17;11.35;;;;;;;;;;6218494;23;20338;-85
2023/10/18 10:32:32;;;;;;;12.60;10.02;;;;;;;;;;6193700;23;20043;-87
2023/10/18 10:35:15;;;;;;;14.63;10.32;;;;;;;;;;6192679;23;20510;-85
2023/10/18 10:37:51;;;;;;;14.80;10.88;;;;;;;;;;6192827;23;20031;-85
2023/10/18 10:43:02;;;;;;;16.10;10.10;;;;;;;;;;6218422;23;19920;-84
2023/10/18 10:48:17;;;;;;;17.10;10.68;;;;;;;;;;6218404;23;20400;-84
2023/10/18 10:50:50;;;;;;;14.90;11.10;;;;;;;;;;6193156;23;20536;-84
2023/10/18 10:53:29;;;;;;;15.65;10.95;;;;;;;;;;6194193;23;20451;-84
2023/10/18 10:55:59;;;;;;;14.35;10.43;;;;;;;;;;6195025;23;20020;-85
2023/10/18 10:58:31;;;;;;;14.75;10.57;;;;;;;;;;6196223;23;20016;-85
2023/10/18 11:01:12;;;;;;;13.18;10.13;;;;;;;;;;6192863;23;20094;-85
2023/10/18 11:03:59;;;;;;;14.95;9.98;;;;;;;;;;6193739;23;20024;-86
2023/10/18 11:06:32;;;;;;;15.73;10.50;;;;;;;;;;6191804;23;20166;-85
2023/10/18 11:08:58;;;;;;;13.10;10.13;;;;;;;;;;6195201;23;20055;-85
2023/10/18 11:11:29;;;;;;;14.23;10.00;;;;;;;;;;6194882;23;20023;-85
2023/10/18 11:14:05;;;;;;;14.80;10.02;;;;;;;;;;6195040;23;20055;-85
2023/10/18 11:16:31;;;;;;;14.20;10.13;;;;;;;;;;6195252;23;20066;-84
2023/10/18 11:19:00;;;;;;;13.77;10.25;;;;;;;;;;6195391;23;20059;-85
2023/10/18 11:21:29;;;;;;;13.18;9.57;;;;;;;;;;6194223;23;20035;-85
2023/10/18 11:24:11;;;;;;;14.35;9.82;;;;;;;;;;6192899;23;20016;-86
2023/10/18 11:26:43;;;;;;;13.13;9.50;;;;;;;;;;6186279;23;21157;-85
2023/10/18 11:29:09;;;;;;;12.38;9.98;;;;;;;;;;6186728;23;20345;-85
2023/10/18 11:31:38;;;;;;;13.13;9.65;;;;;;;;;;6186282;23;20027;-85
2023/10/18 11:34:07;;;;;;;12.57;9.20;;;;;;;;;;6189509;23;20020;-85
2023/10/18 11:36:34;;;;;;;13.63;9.35;;;;;;;;;;6193943;23;20024;-86
2023/10/18 11:39:07;;;;;;;12.88;9.55;;;;;;;;;;6218888;23;20023;-85
2023/10/18 11:41:37;;;;;;;13.30;9.63;;;;;;;;;;6194751;23;20016;-85
2023/10/18 11:44:06;;;;;;;11.43;8.77;;;;;;;;;;6218256;23;20021;-85
2023/10/18 11:46:46;;;;;;;11.73;8.65;;;;;;;;;;6194471;23;20507;-85
2023/10/18 11:49:12;;;;;;;11.40;8.55;;;;;;;;;;6194567;23;20452;-86
2023/10/18 11:51:43;;;;;;;11.20;8.43;;;;;;;;;;6193988;23;20106;-85
2023/10/18 11:54:12;;;;;;;13.00;8.88;;;;;;;;;;6193127;23;20016;-85
2023/10/18 11:56:39;;;;;;;13.63;8.70;;;;;;;;;;6192857;23;20102;-85
2023/10/18 11:59:05;;;;;;;11.93;8.63;;;;;;;;;;6193394;23;20023;-85
2023/10/18 12:01:35;;;;;;;11.52;8.20;;;;;;;;;;6192837;23;20017;-85
2023/10/18 12:04:02;;;;;;;11.93;8.25;;;;;;;;;;6193621;23;20048;-85
2023/10/18 12:06:28;;;;;;;13.18;8.60;;;;;;;;;;6193343;23;20024;-86
2023/10/18 12:09:25;;;;;;;12.77;9.00;;;;;;;;;;6192514;23;20012;-86
2023/10/18 12:11:52;;;;;;;16.25;11.63;;;;;;;;;;6193242;23;20455;-87
2023/10/18 12:14:18;;;;;;;16.58;11.32;;;;;;;;;;6193878;23;20479;-86
2023/10/18 12:16:44;;;;;;;16.25;10.55;;;;;;;;;;6193102;23;20052;-85
2023/10/18 12:19:13;;;;;;;13.68;9.43;;;;;;;;;;6193534;23;20020;-85
2023/10/18 12:21:48;;;;;;;11.75;9.40;;;;;;;;;;6194685;23;20099;-85
2023/10/18 12:24:15;;;;;;;12.52;9.15;;;;;;;;;;6193592;23;20023;-86
2023/10/18 12:26:43;;;;;;;11.48;8.32;;;;;;;;;;6193332;23;20146;-84
2023/10/18 12:29:15;;;;;;;14.02;9.70;;;;;;;;;;6190288;23;20016;-86
2023/10/18 12:31:42;;;;;;;14.15;8.57;;;;;;;;;;6191147;23;20016;-85
2023/10/18 12:34:14;;;;;;;12.75;9.30;;;;;;;;;;6169182;23;20027;-84
2023/10/18 12:36:40;;;;;;;10.88;8.50;;;;;;;;;;6193102;23;20023;-84
2023/10/18 12:39:09;;;;;;;11.07;8.45;;;;;;;;;;6193973;23;20377;-84
2023/10/18 12:41:41;;;;;;;10.95;8.73;;;;;;;;;;6192475;23;20393;-85
2023/10/18 12:44:18;;;;;;;11.63;8.73;;;;;;;;;;6194017;23;20043;-85
2023/10/18 12:46:45;;;;;;;11.32;7.88;;;;;;;;;;6193587;23;20050;-86
2023/10/18 12:49:11;;;;;;;10.23;7.75;;;;;;;;;;6193326;23;20107;-84
2023/10/18 12:51:42;;;;;;;10.60;7.57;;;;;;;;;;6191781;23;20046;-86
2023/10/18 12:54:10;;;;;;;11.90;8.85;;;;;;;;;;6193055;23;20027;-87
2023/10/18 12:56:43;;;;;;;12.57;8.48;;;;;;;;;;6190270;23;20028;-84
2023/10/18 12:59:22;;;;;;;13.07;8.73;;;;;;;;;;6190768;23;20023;-85
2023/10/18 13:01:49;;;;;;;11.15;8.27;;;;;;;;;;6189992;23;20030;-85
2023/10/18 13:04:22;;;;;;;9.50;7.78;;;;;;;;;;6190342;23;20020;-85
2023/10/18 13:06:50;;;;;;;9.98;8.20;;;;;;;;;;6190711;23;20463;-86
2023/10/18 13:09:20;;;;;;;12.32;8.70;;;;;;;;;;6189245;23;20035;-86
2023/10/18 13:14:48;;;;;;;13.20;8.75;;;;;;;;;;6217823;23;20135;-84
2023/10/18 13:17:18;;;;;;;12.23;8.40;;;;;;;;;;6192736;23;20020;-84
2023/10/18 13:19:53;;;;;;;11.32;8.23;;;;;;;;;;6194094;23;20086;-86
2023/10/18 13:22:19;;;;;;;11.20;8.47;;;;;;;;;;6192690;23;20027;-86
2023/10/18 13:24:46;;;;;;;12.73;8.27;;;;;;;;;;6190365;23;20384;-85
2023/10/18 13:27:18;;;;;;;11.13;8.50;;;;;;;;;;6189086;23;20035;-86
2023/10/18 13:30:00;;;;;;;10.50;8.18;;;;;;;;;;6193177;23;20495;-88
2023/10/18 13:32:28;;;;;;;11.13;8.07;;;;;;;;;;6186190;23;20046;-87
2023/10/18 13:34:54;;;;;;;9.75;7.60;;;;;;;;;;6192296;23;20456;-87
2023/10/18 13:37:23;;;;;;;10.43;7.97;;;;;;;;;;6192977;23;20452;-87
2023/10/18 13:39:51;;;;;;;10.38;7.75;;;;;;;;;;6192439;23;20405;-87
2023/10/18 13:42:19;;;;;;;12.60;8.13;;;;;;;;;;6191956;23;20017;-86
2023/10/18 13:44:45;;;;;;;11.18;7.90;;;;;;;;;;6192335;23;20048;-87
2023/10/18 13:47:24;;;;;;;10.30;8.15;;;;;;;;;;6192714;23;20021;-87
2023/10/18 13:49:54;;;;;;;10.70;7.30;;;;;;;;;;6189979;23;20449;-86
2023/10/18 13:52:21;;;;;;;17.52;11.75;;;;;;;;;;6189441;23;20020;-86
2023/10/18 13:54:51;;;;;;;14.68;9.07;;;;;;;;;;6192276;23;20016;-86
2023/10/18 13:57:17;;;;;;;15.88;10.27;;;;;;;;;;6190044;23;20020;-87
2023/10/18 13:59:46;;;;;;;11.88;8.80;;;;;;;;;;6215593;23;20012;-89
2023/10/18 14:02:17;;;;;;;13.65;8.75;;;;;;;;;;6192946;23;20012;-87
2023/10/18 14:04:50;;;;;;;11.00;8.35;;;;;;;;;;6192801;23;20070;-88
2023/10/18 14:07:20;;;;;;;10.73;8.52;;;;;;;;;;6192566;23;20127;-88
2023/10/18 14:09:47;;;;;;;12.27;9.32;;;;;;;;;;6192956;23;20016;-88
2023/10/18 14:12:24;;;;;;;13.18;8.65;;;;;;;;;;6193313;23;20016;-87
2023/10/18 14:14:51;;;;;;;13.05;8.90;;;;;;;;;;6193122;23;20012;-88
2023/10/18 14:17:20;;;;;;;11.70;8.10;;;;;;;;;;6192813;23;20138;-88
2023/10/18 14:19:46;;;;;;;10.70;8.25;;;;;;;;;;6192868;23;20137;-88
2023/10/18 14:22:12;;;;;;;11.05;8.80;;;;;;;;;;6192370;23;20017;-88
2023/10/18 14:24:38;;;;;;;11.50;8.13;;;;;;;;;;6193077;23;20372;-88
2023/10/18 14:27:04;;;;;;;13.95;8.55;;;;;;;;;;6191474;23;20039;-88
2023/10/18 14:29:30;;;;;;;12.88;8.52;;;;;;;;;;6195035;23;20519;-88
2023/10/18 14:32:03;;;;;;;13.45;8.35;;;;;;;;;;6194980;23;20019;-88
2023/10/18 14:34:32;;;;;;;12.43;8.90;;;;;;;;;;6194994;23;20016;-89
2023/10/18 14:36:58;;;;;;;13.75;9.88;;;;;;;;;;6195068;23;20045;-88
2023/10/18 14:39:27;;;;;;;11.88;8.48;;;;;;;;;;6194190;23;20020;-88
2023/10/18 14:41:57;;;;;;;17.95;10.95;;;;;;;;;;6194503;23;20430;-88
2023/10/18 14:44:23;;;;;;;13.70;8.95;;;;;;;;;;6194541;23;20020;-88
2023/10/18 14:46:49;;;;;;;12.77;8.70;;;;;;;;;;6194297;23;20046;-88
2023/10/18 14:49:18;;;;;;;10.60;7.95;;;;;;;;;;6194432;23;20372;-89
2023/10/18 14:51:48;;;;;;;12.50;8.10;;;;;;;;;;6193909;23;20471;-87
2023/10/18 14:54:14;;;;;;;13.13;8.65;;;;;;;;;;6194721;23;20463;-88
2023/10/18 14:56:40;;;;;;;11.68;8.30;;;;;;;;;;6194750;23;20115;-88
2023/10/18 14:59:07;;;;;;;11.07;7.63;;;;;;;;;;6194087;23;20020;-88
2023/10/18 15:01:34;;;;;;;11.05;7.72;;;;;;;;;;6195001;23;20457;-88
2023/10/18 15:04:03;;;;;;;12.40;8.90;;;;;;;;;;6194765;23;20059;-88
2023/10/18 15:06:29;;;;;;;11.77;8.30;;;;;;;;;;6194146;23;20070;-88
2023/10/18 15:08:57;;;;;;;13.25;8.98;;;;;;;;;;6194606;23;20456;-88
2023/10/18 15:11:24;;;;;;;13.95;8.90;;;;;;;;;;6194579;23;20444;-88
2023/10/18 15:14:00;;;;;;;14.55;9.45;;;;;;;;;;6195080;23;20012;-88
2023/10/18 15:16:29;;;;;;;13.73;8.70;;;;;;;;;;6195169;23;20019;-89
2023/10/18 15:18:55;;;;;;;13.75;8.80;;;;;;;;;;6194933;23;20100;-88